Gorman, Texas
Current Conditions -  °F | °C
As of 5:15 PM on Saturday 22 Nov 2014 (Local Time) from KMKN Reporting Station
Thunderstorm Thunderstorm  
Wind Chill: 59°   Ceiling: 1100
Heat Index: 59°   Visibility: 10mi
Dew Point: 59°   Wind: 5mph
Humidity: 100%   Direction: 70°ENE
Pressure: 29.86"   Gusts: NA
Location:  32.21°N, 98.67°W
Report Text: KMKN 222315Z AUTO 07004KT 10SM VCTS OVC011 15/15 A2986 RMK AO2 LTG DSNT ALQS T01500150
Loading
Personal Weather Stations






























Interactive Weather Map New forecast layout! Learn more

10-Day Weather Forecast

Advertisements
Track Severe Weather on mobile